Time;durP1;ratioP1;P1;durP2;ratioP2;P2;SDS_P1;SDS_P2;PMS_P1;PMS_P2;Temp;Humidity;BMP_temperature;BMP_pressure;BME280_temperature;BME280_humidity;BME280_pressure;Samples;Min_cycle;Max_cycle;Signal;HPM_P1;HPM_P2
2022/01/25 00:26:47;;;;;;;39.83;19.67;;;;;;;-6.66;51.19;96330.16;4950055;28;20058;-78
2022/01/25 00:29:26;;;;;;;42.72;19.48;;;;;;;-6.74;52.00;96324.72;4944719;28;20039;-81
2022/01/25 00:31:52;;;;;;;37.22;18.70;;;;;;;-6.71;51.44;96337.19;4964826;28;20062;-81
2022/01/25 00:34:18;;;;;;;27.70;18.25;;;;;;;-6.87;51.78;96333.09;4933808;28;20105;-82
2022/01/25 00:36:43;;;;;;;47.83;22.33;;;;;;;-6.76;52.00;96331.56;4949063;28;20046;-80
2022/01/25 00:39:08;;;;;;;42.30;22.48;;;;;;;-6.74;52.89;96334.00;4950452;28;20027;-80
2022/01/25 00:41:34;;;;;;;50.00;24.55;;;;;;;-6.75;51.68;96327.34;4950150;28;20041;-80
2022/01/25 00:44:01;;;;;;;44.13;20.80;;;;;;;-6.74;52.48;96324.72;4967172;28;20053;-80
2022/01/25 00:46:27;;;;;;;37.85;19.70;;;;;;;-6.68;52.23;96321.00;4954363;28;20022;-82
2022/01/25 00:48:58;;;;;;;44.75;21.77;;;;;;;-6.62;53.41;96319.84;4953077;28;20079;-81
2022/01/25 00:56:38;;;;;;;37.33;19.38;;;;;;;-6.47;52.54;96322.28;4957495;28;20046;-80
2022/01/25 00:59:06;;;;;;;30.15;17.40;;;;;;;-6.43;53.87;96312.78;4968904;28;20036;-80
2022/01/25 01:01:32;;;;;;;43.28;18.92;;;;;;;-6.31;53.41;96321.38;4984309;28;20042;-81
2022/01/25 01:04:00;;;;;;;40.03;19.08;;;;;;;-6.38;53.09;96316.66;4946113;28;20546;-81
2022/01/25 01:06:26;;;;;;;30.35;16.15;;;;;;;-6.40;53.20;96315.13;4953664;28;20062;-80
2022/01/25 01:08:55;;;;;;;40.08;17.83;;;;;;;-6.26;53.58;96310.06;4923112;28;20038;-81
2022/01/25 01:11:27;;;;;;;45.05;21.10;;;;;;;-6.23;52.81;96309.88;4954385;28;20558;-81
2022/01/25 01:14:00;;;;;;;45.28;21.98;;;;;;;-6.30;52.33;96311.16;4948545;28;20039;-80
2022/01/25 01:41:33;;;;;;;18.42;10.43;;;;;;;-5.98;53.50;96298.28;4946527;28;20105;-82
2022/01/25 01:44:00;;;;;;;16.58;10.68;;;;;;;-6.06;53.36;96291.13;4974308;28;20051;-82
2022/01/25 01:46:58;;;;;;;15.50;10.65;;;;;;;-6.09;54.05;96286.25;4939062;28;20041;-82
2022/01/25 01:49:25;;;;;;;21.40;9.93;;;;;;;-6.03;53.81;96292.66;4956832;28;20515;-82
2022/01/25 01:51:51;;;;;;;19.30;11.02;;;;;;;-6.03;53.72;96287.59;4934947;28;20133;-82
2022/01/25 01:54:16;;;;;;;23.08;11.25;;;;;;;-6.01;53.65;96288.34;4943082;28;20090;-82
2022/01/25 01:56:42;;;;;;;24.83;11.98;;;;;;;-5.88;53.01;96289.16;4970593;28;20035;-81
2022/01/25 01:59:10;;;;;;;27.33;12.77;;;;;;;-5.90;52.91;96283.41;4951096;28;20507;-81
2022/01/25 02:01:36;;;;;;;29.42;13.65;;;;;;;-5.87;53.18;96284.00;4919637;28;20035;-82
2022/01/25 02:04:03;;;;;;;22.48;13.30;;;;;;;-5.88;53.35;96279.03;4941511;28;20094;-82
2022/01/25 02:06:28;;;;;;;15.98;11.48;;;;;;;-5.91;53.58;96286.84;4952111;28;20031;-82
2022/01/25 02:08:54;;;;;;;21.67;12.50;;;;;;;-5.88;53.62;96273.94;4968347;28;20119;-82
2022/01/25 02:11:19;;;;;;;22.48;13.55;;;;;;;-5.97;54.11;96284.69;4949719;28;20070;-81
2022/01/25 02:13:48;;;;;;;18.33;11.80;;;;;;;-6.03;54.47;96274.94;4921699;28;20114;-81
2022/01/25 02:16:41;;;;;;;21.40;12.10;;;;;;;-6.04;54.57;96281.72;4948744;28;20415;-81
2022/01/25 02:24:31;;;;;;;25.55;15.23;;;;;;;-6.10;55.65;96269.44;4951092;28;20082;-80
2022/01/25 02:26:58;;;;;;;26.10;14.50;;;;;;;-6.02;54.75;96267.28;4934889;28;20042;-80
2022/01/25 02:29:24;;;;;;;31.80;17.20;;;;;;;-6.01;55.30;96260.47;4934602;28;20035;-79
2022/01/25 02:31:51;;;;;;;31.70;16.67;;;;;;;-6.01;54.88;96252.88;4949573;28;20039;-79
2022/01/25 02:34:17;;;;;;;34.33;17.83;;;;;;;-6.01;55.74;96252.88;4934304;28;20031;-81
2022/01/25 02:36:42;;;;;;;25.63;13.57;;;;;;;-5.96;55.35;96258.47;4935156;28;20042;-80
2022/01/25 02:39:08;;;;;;;23.73;13.98;;;;;;;-5.96;54.83;96250.88;4967615;28;20034;-81
2022/01/25 02:41:34;;;;;;;26.85;14.48;;;;;;;-5.97;54.91;96249.25;4924416;28;20031;-81
2022/01/25 02:43:59;;;;;;;27.00;14.70;;;;;;;-5.98;55.41;96245.09;4950531;28;20114;-82
2022/01/25 02:49:00;;;;;;;23.77;12.52;;;;;;;-6.15;55.27;96252.00;4937244;28;20038;-80
2022/01/25 02:51:43;;;;;;;25.65;14.55;;;;;;;-6.24;55.33;96246.69;4949859;28;20035;-80
2022/01/25 02:54:09;;;;;;;24.15;12.10;;;;;;;-6.47;56.00;96245.56;4952743;28;20046;-80
2022/01/25 02:56:38;;;;;;;20.80;12.40;;;;;;;-6.61;57.03;96238.81;4950975;28;20038;-80
2022/01/25 02:59:04;;;;;;;16.92;10.23;;;;;;;-6.69;56.87;96236.72;4934658;28;20027;-79
2022/01/25 03:01:30;;;;;;;19.80;11.85;;;;;;;-6.86;58.20;96236.91;4929078;28;20035;-79
2022/01/25 03:03:56;;;;;;;21.20;12.27;;;;;;;-6.82;57.26;96230.78;4926060;28;20042;-80
2022/01/25 03:06:22;;;;;;;17.80;12.13;;;;;;;-6.81;56.95;96237.47;4937882;28;20048;-80
2022/01/25 03:08:47;;;;;;;24.88;13.52;;;;;;;-6.80;56.96;96239.09;4936936;28;20065;-79
2022/01/25 03:11:13;;;;;;;22.23;13.00;;;;;;;-6.76;57.05;96238.00;4920589;28;20042;-81
2022/01/25 03:13:52;;;;;;;16.73;11.07;;;;;;;-6.72;56.65;96236.91;4967694;28;20026;-79
2022/01/25 03:17:08;;;;;;;17.42;11.38;;;;;;;-6.75;56.75;96241.34;4954998;28;20043;-81
2022/01/25 03:22:16;;;;;;;23.63;12.38;;;;;;;-6.91;57.32;96233.03;4940713;28;20053;-79
2022/01/25 03:24:41;;;;;;;19.15;13.10;;;;;;;-7.01;57.31;96235.28;4947136;28;20042;-79
2022/01/25 03:27:07;;;;;;;14.38;11.65;;;;;;;-7.06;57.11;96232.22;4937827;28;20039;-80
2022/01/25 03:29:33;;;;;;;22.73;13.30;;;;;;;-7.01;57.65;96240.34;4936617;28;20038;-82
2022/01/25 03:31:58;;;;;;;20.38;11.77;;;;;;;-7.13;57.17;96236.00;4951175;28;20066;-81
2022/01/25 03:34:23;;;;;;;19.40;12.63;;;;;;;-7.12;57.65;96227.53;4932301;28;20036;-81
2022/01/25 03:36:49;;;;;;;17.48;11.98;;;;;;;-7.06;57.44;96238.09;4950740;28;20035;-81
2022/01/25 03:39:14;;;;;;;19.90;12.18;;;;;;;-7.01;56.44;96230.22;4949148;28;20554;-81
2022/01/25 03:41:40;;;;;;;19.25;11.65;;;;;;;-7.08;56.93;96227.25;4969154;28;20039;-81
2022/01/25 03:44:06;;;;;;;20.25;11.80;;;;;;;-7.17;56.61;96226.97;4953019;28;20031;-81
2022/01/25 03:51:44;;;;;;;25.40;13.05;;;;;;;-7.31;57.59;96217.66;4953798;28;20101;-81
2022/01/25 03:54:10;;;;;;;24.15;13.05;;;;;;;-7.34;56.82;96218.63;4918849;29;94010;-81
2022/01/25 03:56:36;;;;;;;30.23;14.88;;;;;;;-7.40;57.58;96219.00;4932846;29;20063;-79
2022/01/25 03:59:02;;;;;;;25.38;14.23;;;;;;;-7.41;57.12;96222.44;4930588;29;20440;-80
2022/01/25 04:01:27;;;;;;;26.83;14.82;;;;;;;-7.42;58.09;96228.38;4946502;29;20027;-80
2022/01/25 04:04:17;;;;;;;17.80;11.82;;;;;;;-7.37;57.28;96223.88;4930072;29;20047;-80
2022/01/25 04:06:41;;;;;;;25.90;14.20;;;;;;;-7.45;57.39;96220.97;4946404;29;20072;-83
2022/01/25 04:09:07;;;;;;;16.52;12.25;;;;;;;-7.42;57.25;96220.81;4947796;29;20077;-83
2022/01/25 04:11:33;;;;;;;23.90;14.20;;;;;;;-7.41;56.53;96217.38;4929215;29;20052;-82
2022/01/25 04:13:58;;;;;;;22.73;12.38;;;;;;;-7.48;56.51;96217.81;4948083;29;20039;-78
2022/01/25 04:16:35;;;;;;;21.60;13.70;;;;;;;-7.49;56.70;96216.16;4944600;28;20031;-82
2022/01/25 04:19:16;;;;;;;22.60;13.07;;;;;;;-7.44;56.94;96216.75;4949991;28;20032;-80
2022/01/25 04:24:43;;;;;;;27.70;14.98;;;;;;;-7.44;56.94;96212.50;4933311;29;20530;-82
2022/01/25 04:24:56;;;;;;;29.23;16.02;;;;;;;-7.42;56.90;96213.22;4948381;29;20567;-79
2022/01/25 04:27:25;;;;;;;32.45;19.25;;;;;;;-7.36;56.81;96214.56;4945088;29;20044;-76
2022/01/25 04:29:53;;;;;;;37.50;18.80;;;;;;;-7.40;57.36;96213.13;4927843;29;20044;-78
2022/01/25 04:32:19;;;;;;;29.95;16.00;;;;;;;-7.39;56.10;96220.63;4930083;29;20116;-79
2022/01/25 04:35:07;;;;;;;27.00;15.35;;;;;;;-7.48;56.73;96217.81;4946500;29;20483;-77
2022/01/25 04:54:02;;;;;;;31.70;16.13;;;;;;;-8.22;59.65;96223.59;4941999;29;20035;-76
2022/01/25 04:56:41;;;;;;;32.53;18.13;;;;;;;-8.25;60.72;96223.78;4940842;29;20035;-77
2022/01/25 04:59:15;;;;;;;41.05;18.45;;;;;;;-8.31;61.71;96208.94;4945045;29;20036;-78
2022/01/25 05:01:43;;;;;;;27.50;16.63;;;;;;;-8.28;61.60;96197.00;4930167;29;20070;-77
2022/01/25 05:04:14;;;;;;;50.58;21.27;;;;;;;-8.43;61.56;96202.91;4946045;28;20042;-76
2022/01/25 05:06:45;;;;;;;41.42;21.13;;;;;;;-8.50;62.49;96204.91;4941964;29;20059;-77
2022/01/25 05:09:13;;;;;;;42.88;20.30;;;;;;;-8.54;61.85;96213.56;4940653;29;20043;-76
2022/01/25 05:11:43;;;;;;;42.67;19.55;;;;;;;-8.49;61.98;96216.63;4943432;29;20051;-76
2022/01/25 05:16:59;;;;;;;36.15;18.55;;;;;;;-8.54;62.86;96218.59;4941332;29;20194;-76
2022/01/25 05:22:19;;;;;;;40.42;22.23;;;;;;;-8.51;63.55;96218.44;4940654;29;20759;-79
2022/01/25 05:24:45;;;;;;;51.28;21.23;;;;;;;-8.38;63.20;96203.47;4940657;29;20040;-76
2022/01/25 05:27:12;;;;;;;48.85;22.75;;;;;;;-8.27;62.26;96205.38;4923959;29;20063;-76
2022/01/25 05:29:38;;;;;;;46.80;22.23;;;;;;;-8.21;61.52;96200.00;4924039;29;20516;-77
2022/01/25 05:32:04;;;;;;;51.47;24.55;;;;;;;-8.13;60.89;96195.34;4924213;29;20035;-77
2022/01/25 05:34:30;;;;;;;57.80;25.73;;;;;;;-8.19;61.11;96191.44;4939710;29;20039;-76
2022/01/25 05:36:55;;;;;;;59.78;27.15;;;;;;;-8.08;61.01;96188.34;4924634;29;20034;-76
2022/01/25 05:39:33;;;;;;;63.05;27.38;;;;;;;-7.99;59.75;96180.25;4939806;28;20039;-77
2022/01/25 05:42:32;;;;;;;51.47;23.25;;;;;;;-7.89;60.78;96180.56;4939986;29;20460;-75
2022/01/25 05:44:57;;;;;;;55.92;25.70;;;;;;;-7.87;60.14;96174.50;4939773;29;20142;-77
2022/01/25 05:47:30;;;;;;;41.30;21.90;;;;;;;-7.79;59.49;96173.28;4943564;28;20032;-76
2022/01/25 05:49:56;;;;;;;46.53;20.63;;;;;;;-7.73;60.20;96176.25;4929116;23;20050;-76
2022/01/25 05:52:22;;;;;;;39.75;21.42;;;;;;;-7.63;59.05;96182.44;4931338;29;20118;-76
2022/01/25 05:54:48;;;;;;;32.38;20.27;;;;;;;-7.51;59.30;96188.47;4930829;29;20529;-76
2022/01/25 05:57:14;;;;;;;39.10;20.67;;;;;;;-7.42;58.68;96184.63;4931479;29;20032;-76
2022/01/25 05:59:39;;;;;;;56.72;24.17;;;;;;;-7.30;57.74;96197.38;4931319;29;20039;-77
2022/01/25 06:02:05;;;;;;;43.85;23.77;;;;;;;-7.19;58.29;96193.38;4931731;29;20416;-76
2022/01/25 06:04:31;;;;;;;36.63;19.17;;;;;;;-7.19;58.84;96200.97;4913286;29;20067;-76
2022/01/25 06:06:57;;;;;;;43.25;20.10;;;;;;;-7.07;58.45;96205.31;4897640;29;20057;-78
2022/01/25 06:09:25;;;;;;;55.13;25.02;;;;;;;-6.96;57.37;96197.91;4930043;29;20031;-76
2022/01/25 06:11:51;;;;;;;42.25;22.65;;;;;;;-6.95;57.63;96199.53;4934183;29;20043;-76
2022/01/25 06:14:17;;;;;;;46.33;21.95;;;;;;;-6.89;56.79;96206.75;4933694;29;20118;-77
2022/01/25 06:16:43;;;;;;;44.85;22.40;;;;;;;-6.75;57.32;96195.81;4915047;29;20423;-79
2022/01/25 06:19:11;;;;;;;60.60;28.10;;;;;;;-6.59;56.46;96193.16;4932630;29;20095;-78
2022/01/25 06:21:39;;;;;;;56.05;27.42;;;;;;;-6.50;55.06;96195.16;4931309;29;20460;-77
2022/01/25 06:24:05;;;;;;;69.38;25.90;;;;;;;-6.46;55.72;96191.53;4934361;29;20114;-76
2022/01/25 06:26:30;;;;;;;74.57;31.85;;;;;;;-6.40;55.32;96196.19;4932958;29;20444;-77
2022/01/25 06:28:56;;;;;;;81.75;33.05;;;;;;;-6.29;54.73;96196.34;4934682;29;20147;-77
2022/01/25 06:31:22;;;;;;;57.92;26.75;;;;;;;-6.34;54.54;96185.72;4944799;23;20051;-76
2022/01/25 06:33:48;;;;;;;51.03;26.58;;;;;;;-6.30;53.82;96187.13;4944626;29;20075;-77
2022/01/25 06:36:13;;;;;;;88.65;34.55;;;;;;;-6.15;53.34;96181.13;4934392;29;20028;-77
2022/01/25 06:38:39;;;;;;;62.38;30.20;;;;;;;-6.11;52.68;96177.50;4934279;29;20122;-75
2022/01/25 06:41:05;;;;;;;74.90;33.38;;;;;;;-6.00;52.97;96176.00;4915482;29;20164;-75
2022/01/25 06:43:30;;;;;;;70.05;32.65;;;;;;;-5.94;52.90;96183.22;4933245;29;20302;-75
2022/01/25 06:46:00;;;;;;;86.40;36.75;;;;;;;-5.97;52.48;96194.34;4932447;29;20028;-77
2022/01/25 06:48:25;;;;;;;90.28;38.40;;;;;;;-5.92;52.91;96183.91;4933354;29;20480;-76
2022/01/25 06:50:51;;;;;;;85.10;38.25;;;;;;;-5.86;52.05;96175.88;4916969;29;20134;-77
2022/01/25 06:53:16;;;;;;;58.50;30.73;;;;;;;-5.79;52.04;96167.00;4932541;29;20304;-77
2022/01/25 06:55:42;;;;;;;97.97;43.45;;;;;;;-5.77;52.17;96165.19;4916903;29;20031;-76
2022/01/25 06:58:08;;;;;;;79.70;36.42;;;;;;;-5.80;51.80;96167.91;4932788;29;20088;-75
2022/01/25 07:00:33;;;;;;;79.45;36.03;;;;;;;-5.79;51.95;96167.00;4916458;29;20440;-75
2022/01/25 07:02:59;;;;;;;97.75;41.33;;;;;;;-5.86;51.90;96175.88;4932773;29;20044;-77
2022/01/25 07:05:24;;;;;;;140.85;57.85;;;;;;;-5.76;51.05;96180.28;4900876;29;20035;-77
2022/01/25 07:07:51;;;;;;;129.95;54.80;;;;;;;-5.68;51.33;96179.81;4932669;29;20526;-76
2022/01/25 07:10:17;;;;;;;118.65;50.47;;;;;;;-5.63;51.14;96174.44;4932610;29;20044;-77
2022/01/25 07:12:43;;;;;;;85.45;39.67;;;;;;;-5.60;51.14;96182.63;4932448;29;20036;-77
2022/01/25 07:15:09;;;;;;;73.88;34.05;;;;;;;-5.50;50.58;96171.00;4932506;29;20040;-77
2022/01/25 07:17:34;;;;;;;49.47;25.60;;;;;;;-5.50;51.30;96168.47;4916577;29;20043;-77
2022/01/25 07:20:00;;;;;;;67.57;31.13;;;;;;;-5.35;50.95;96160.78;4915849;29;20126;-77
2022/01/25 07:22:25;;;;;;;65.53;30.80;;;;;;;-5.18;50.76;96160.47;4916726;29;20023;-77
2022/01/25 07:24:51;;;;;;;56.42;30.13;;;;;;;-4.83;51.04;96163.16;4933676;29;20389;-77
2022/01/25 07:27:16;;;;;;;83.75;37.45;;;;;;;-4.52;49.90;96159.31;4932461;29;20495;-77
2022/01/25 07:29:42;;;;;;;51.33;26.35;;;;;;;-4.28;49.25;96154.25;4916357;29;20047;-77
2022/01/25 07:32:10;;;;;;;75.03;33.75;;;;;;;-4.03;48.98;96153.34;4921033;23;20229;-77
2022/01/25 07:34:36;;;;;;;69.75;31.63;;;;;;;-3.76;48.11;96158.97;4933368;29;20075;-77
2022/01/25 07:37:02;;;;;;;41.47;23.33;;;;;;;-3.58;46.76;96149.22;4933801;29;20114;-77
2022/01/25 07:39:28;;;;;;;42.22;20.88;;;;;;;-3.43;46.41;96152.34;4932325;29;20103;-77
2022/01/25 07:41:57;;;;;;;47.17;23.02;;;;;;;-3.32;46.10;96140.47;4932476;29;20043;-77
2022/01/25 07:44:27;;;;;;;49.35;22.70;;;;;;;-3.20;45.91;96145.56;4932321;29;20054;-77
2022/01/25 07:46:52;;;;;;;46.40;24.10;;;;;;;-3.09;45.63;96154.03;4916630;29;20044;-77
2022/01/25 07:49:18;;;;;;;36.88;19.75;;;;;;;-3.00;44.72;96149.16;4914261;29;20032;-77
2022/01/25 07:51:43;;;;;;;49.63;25.85;;;;;;;-2.79;45.13;96147.50;4933635;29;20046;-77
2022/01/25 07:54:09;;;;;;;38.80;21.10;;;;;;;-2.64;44.55;96151.44;4916154;29;20095;-77
2022/01/25 07:56:34;;;;;;;52.95;28.48;;;;;;;-2.56;44.91;96146.56;4929510;23;20062;-77
2022/01/25 07:59:00;;;;;;;66.38;26.80;;;;;;;-2.48;44.36;96143.44;4951396;29;20050;-77
2022/01/25 08:01:26;;;;;;;39.08;20.50;;;;;;;-2.50;43.70;96142.75;4950397;29;20427;-78
2022/01/25 08:03:52;;;;;;;51.58;27.83;;;;;;;-2.37;45.13;96153.59;4954237;29;20407;-78
2022/01/25 08:06:17;;;;;;;74.55;37.03;;;;;;;-2.24;43.96;96150.91;4952533;28;20030;-77
2022/01/25 08:08:43;;;;;;;49.85;27.58;;;;;;;-2.23;43.87;96150.78;4951301;28;20030;-77
2022/01/25 08:11:08;;;;;;;42.05;23.23;;;;;;;-2.21;43.89;96153.22;4951309;29;20415;-77
2022/01/25 08:13:38;;;;;;;38.63;21.13;;;;;;;-2.20;44.17;96149.72;4950687;28;20055;-77
2022/01/25 08:16:04;;;;;;;39.70;19.90;;;;;;;-2.24;43.37;96148.38;4951379;29;20031;-77
2022/01/25 08:18:30;;;;;;;32.10;18.45;;;;;;;-2.37;44.04;96147.69;4950985;29;20043;-77
2022/01/25 08:20:55;;;;;;;56.53;26.15;;;;;;;-2.34;44.23;96147.44;4967155;28;20427;-77
2022/01/25 08:23:21;;;;;;;50.60;25.35;;;;;;;-2.25;44.51;96152.66;4948915;23;20043;-77
2022/01/25 08:25:46;;;;;;;65.80;30.20;;;;;;;-2.13;43.98;96143.22;4933167;29;20114;-77
2022/01/25 08:28:11;;;;;;;40.72;22.13;;;;;;;-2.08;43.29;96143.69;4947889;29;20063;-78
2022/01/25 08:30:39;;;;;;;35.08;20.80;;;;;;;-2.19;44.42;96141.16;4931874;29;20536;-77
2022/01/25 08:33:05;;;;;;;51.70;26.33;;;;;;;-2.09;44.00;96154.81;4901276;29;20036;-77
2022/01/25 08:35:30;;;;;;;54.42;28.63;;;;;;;-1.96;44.26;96155.44;4931936;29;20034;-77
2022/01/25 08:37:58;;;;;;;42.40;23.38;;;;;;;-1.85;43.50;96146.94;4931624;29;20172;-77
2022/01/25 08:40:24;;;;;;;37.40;21.27;;;;;;;-1.72;43.10;96139.94;4933478;29;20062;-77
2022/01/25 08:42:49;;;;;;;37.67;20.05;;;;;;;-1.85;42.85;96140.09;4932298;29;20035;-77
2022/01/25 08:45:15;;;;;;;37.65;20.10;;;;;;;-1.84;43.51;96140.91;4931375;29;20506;-77
2022/01/25 08:47:40;;;;;;;38.35;21.98;;;;;;;-1.94;43.15;96140.84;4932902;29;20036;-77
2022/01/25 08:50:08;;;;;;;32.78;18.77;;;;;;;-1.91;42.51;96132.16;4932878;29;20039;-77
2022/01/25 08:52:34;;;;;;;36.97;20.92;;;;;;;-2.09;43.58;96119.13;4931494;29;20048;-77
2022/01/25 08:55:06;;;;;;;27.50;17.67;;;;;;;-2.05;43.59;96122.22;4915261;29;20419;-77
2022/01/25 08:57:32;;;;;;;44.20;19.75;;;;;;;-2.04;43.16;96127.22;4932149;29;20721;-77
2022/01/25 08:59:57;;;;;;;39.30;18.73;;;;;;;-2.12;43.07;96127.00;4931915;29;20122;-77
2022/01/25 09:02:22;;;;;;;32.38;16.65;;;;;;;-2.33;43.34;96119.31;4933501;29;20031;-77
2022/01/25 09:04:48;;;;;;;33.30;17.40;;;;;;;-2.61;43.83;96120.63;4934208;29;20047;-77
2022/01/25 09:07:13;;;;;;;31.90;17.50;;;;;;;-2.65;44.59;96118.47;4934645;29;20027;-77
2022/01/25 09:09:40;;;;;;;31.05;15.77;;;;;;;-2.74;44.63;96109.81;4931135;29;20036;-75
2022/01/25 09:12:06;;;;;;;37.80;16.70;;;;;;;-2.68;44.85;96111.88;4930929;29;20036;-78
2022/01/25 09:14:32;;;;;;;30.92;17.08;;;;;;;-2.73;45.22;96113.97;4938642;23;20071;-77
2022/01/25 09:16:57;;;;;;;40.13;20.98;;;;;;;-2.66;44.98;96110.00;4950480;28;20039;-77
2022/01/25 09:19:25;;;;;;;30.05;18.50;;;;;;;-2.62;44.96;96103.75;4945427;28;20046;-77
2022/01/25 09:21:50;;;;;;;25.05;16.52;;;;;;;-2.61;44.29;96095.19;5043296;23;20142;-78
2022/01/25 09:24:16;;;;;;;29.33;16.17;;;;;;;-2.70;44.34;96100.19;4932094;29;20162;-77
2022/01/25 09:26:42;;;;;;;32.10;17.73;;;;;;;-2.71;45.14;96094.28;4932829;29;20538;-80
2022/01/25 09:29:07;;;;;;;31.00;17.30;;;;;;;-2.79;45.14;96096.59;4917055;29;20091;-78
2022/01/25 09:31:33;;;;;;;36.22;17.02;;;;;;;-2.85;44.96;96089.44;4933278;29;20136;-77
2022/01/25 09:34:01;;;;;;;32.38;18.48;;;;;;;-2.84;45.16;96103.78;4930667;29;20036;-78
2022/01/25 09:36:27;;;;;;;29.90;17.05;;;;;;;-2.87;45.51;96093.84;4931034;29;20035;-78
2022/01/25 09:38:53;;;;;;;37.05;18.15;;;;;;;-2.89;45.94;96091.44;4930845;29;20090;-79
2022/01/25 09:41:19;;;;;;;42.67;21.15;;;;;;;-2.82;46.01;96096.84;4932137;29;20476;-77
2022/01/25 09:43:44;;;;;;;37.78;21.13;;;;;;;-2.82;46.30;96086.66;4914577;29;20345;-77
2022/01/25 09:46:10;;;;;;;47.88;20.63;;;;;;;-2.71;46.42;96084.13;4930281;29;20503;-77
2022/01/25 09:48:38;;;;;;;45.13;22.50;;;;;;;-2.69;45.97;96079.69;4931496;29;20096;-78
2022/01/25 09:51:04;;;;;;;34.40;18.27;;;;;;;-2.80;45.72;96065.25;4930708;29;20059;-79
2022/01/25 09:53:30;;;;;;;35.40;17.80;;;;;;;-3.09;46.36;96067.50;4930474;29;20055;-78
2022/01/25 09:55:55;;;;;;;39.90;19.23;;;;;;;-3.10;47.65;96077.78;4929941;29;20032;-77
2022/01/25 09:58:23;;;;;;;41.47;21.05;;;;;;;-3.03;47.27;96067.03;4930352;29;20039;-78
2022/01/25 10:00:56;;;;;;;29.58;17.65;;;;;;;-3.09;47.13;96067.50;4931945;29;20530;-78
2022/01/25 10:03:28;;;;;;;42.17;19.25;;;;;;;-3.07;47.21;96067.41;4949376;29;20008;-79
2022/01/25 10:05:56;;;;;;;37.60;20.73;;;;;;;-3.07;48.05;96055.47;4956642;29;20038;-78
2022/01/25 10:08:26;;;;;;;36.30;18.70;;;;;;;-3.05;47.92;96051.09;4941211;29;20284;-78
2022/01/25 10:10:57;;;;;;;42.75;19.25;;;;;;;-2.89;48.15;96049.91;4917704;29;20043;-79
2022/01/25 10:13:30;;;;;;;35.28;18.10;;;;;;;-2.67;46.90;96054.94;4932624;29;20040;-78
2022/01/25 10:16:10;;;;;;;48.10;17.33;;;;;;;-2.68;46.82;96053.31;4916618;29;20051;-78
2022/01/25 10:18:47;;;;;;;31.95;18.48;;;;;;;-2.65;47.25;96040.34;4916374;29;20036;-78
2022/01/25 10:21:15;;;;;;;38.90;17.25;;;;;;;-2.74;46.70;96033.44;4915276;29;20080;-78
2022/01/25 10:23:43;;;;;;;37.15;17.95;;;;;;;-2.69;47.28;96031.34;4933225;29;20488;-78
2022/01/25 10:26:09;;;;;;;34.38;16.67;;;;;;;-2.61;47.26;96039.16;4917348;29;20122;-78
2022/01/25 10:28:34;;;;;;;29.67;15.88;;;;;;;-2.64;46.35;96029.22;4933269;29;20511;-78
2022/01/25 10:31:06;;;;;;;36.17;16.73;;;;;;;-2.97;47.71;96032.66;4932972;29;20036;-78
2022/01/25 10:33:39;;;;;;;30.33;15.97;;;;;;;-3.22;47.71;96030.41;4933325;29;20051;-78
2022/01/25 10:36:21;;;;;;;27.25;16.95;;;;;;;-3.38;48.72;96033.31;4939060;29;20119;-77
2022/01/25 10:38:47;;;;;;;31.73;18.63;;;;;;;-3.38;48.56;96028.22;4956868;28;20265;-78
2022/01/25 10:41:19;;;;;;;36.10;16.63;;;;;;;-3.34;48.07;96024.50;4926715;29;20686;-78
2022/01/25 10:43:47;;;;;;;28.52;15.38;;;;;;;-3.37;48.47;96017.13;4926742;29;20115;-78
2022/01/25 10:46:22;;;;;;;27.10;15.65;;;;;;;-3.54;49.38;96012.50;4928629;29;20078;-78
2022/01/25 10:49:04;;;;;;;27.15;15.95;;;;;;;-3.59;49.58;96020.47;4917168;29;20048;-78
2022/01/25 10:51:38;;;;;;;27.77;13.97;;;;;;;-3.58;49.46;96003.47;4922532;29;20051;-78
2022/01/25 10:54:04;;;;;;;25.00;14.50;;;;;;;-3.66;49.16;95992.16;4910212;29;20405;-78
2022/01/25 10:56:44;;;;;;;38.75;17.55;;;;;;;-3.74;49.99;95991.94;4926088;29;20046;-78
2022/01/25 10:59:15;;;;;;;107.18;27.00;;;;;;;-3.66;49.55;95999.78;4916735;29;20044;-78
2022/01/25 11:01:55;;;;;;;30.90;14.95;;;;;;;-3.65;49.60;95991.25;4932006;29;20471;-78
2022/01/25 11:04:34;;;;;;;28.92;15.20;;;;;;;-3.92;49.92;95994.09;4916365;29;20156;-78
2022/01/25 11:07:10;;;;;;;26.60;16.77;;;;;;;-3.96;50.83;95991.91;4934659;29;20043;-78
2022/01/25 11:09:40;;;;;;;26.27;15.02;;;;;;;-3.99;50.86;95987.06;4935929;29;20055;-78
2022/01/25 11:12:07;;;;;;;31.13;15.40;;;;;;;-3.93;50.50;95992.47;4935897;29;20048;-78
2022/01/25 11:17:18;;;;;;;27.67;15.20;;;;;;;-3.78;50.02;95982.91;4935747;29;20043;-78
2022/01/25 11:19:43;;;;;;;27.15;15.23;;;;;;;-3.72;50.19;95990.09;4935918;29;20094;-78
2022/01/25 11:22:13;;;;;;;23.83;15.43;;;;;;;-3.58;49.36;95985.69;4919855;29;20047;-78
2022/01/25 11:24:39;;;;;;;31.05;15.70;;;;;;;-3.50;49.47;95978.28;4935570;29;20044;-78
2022/01/25 11:27:13;;;;;;;24.77;15.00;;;;;;;-3.41;49.14;95969.97;4903810;29;20099;-78
2022/01/25 11:29:39;;;;;;;29.15;16.48;;;;;;;-3.41;48.93;95969.97;4917925;29;20031;-78
2022/01/25 11:32:07;;;;;;;27.35;16.52;;;;;;;-3.29;49.25;95966.47;4935528;29;20490;-78
2022/01/25 11:34:34;;;;;;;28.73;15.70;;;;;;;-3.22;48.29;95957.44;4919114;29;20059;-78
2022/01/25 11:37:05;;;;;;;28.52;16.00;;;;;;;-3.23;49.02;95949.94;4919151;29;20043;-78
2022/01/25 11:39:30;;;;;;;35.40;16.15;;;;;;;-3.23;48.90;95935.50;4933002;29;20266;-77
2022/01/25 11:42:04;;;;;;;28.90;16.63;;;;;;;-3.26;48.82;95940.78;4932532;29;20504;-77
2022/01/25 11:44:31;;;;;;;32.97;15.80;;;;;;;-3.30;50.10;95934.34;4907365;29;20047;-76
2022/01/25 11:46:58;;;;;;;30.35;15.75;;;;;;;-3.34;49.74;95938.84;4975397;23;20054;-78
2022/01/25 11:49:24;;;;;;;28.58;15.90;;;;;;;-3.37;49.38;95928.13;4968155;23;20043;-78
2022/01/25 11:52:19;;;;;;;28.55;15.43;;;;;;;-3.49;49.50;95929.88;4954221;28;20040;-78
2022/01/25 11:54:44;;;;;;;26.75;16.05;;;;;;;-3.57;49.27;95928.84;4925632;29;20043;-78
2022/01/25 11:57:26;;;;;;;29.05;15.98;;;;;;;-3.68;49.72;95924.59;4933507;29;20535;-78
2022/01/25 11:59:54;;;;;;;31.70;16.40;;;;;;;-3.75;50.65;95924.22;4914963;29;20032;-79
2022/01/25 12:02:56;;;;;;;27.48;15.00;;;;;;;-3.66;51.21;95918.44;4932625;29;20043;-76
2022/01/25 12:05:27;;;;;;;30.33;17.23;;;;;;;-3.58;50.15;95917.03;4877377;29;20033;-78
2022/01/25 12:08:06;;;;;;;30.63;15.82;;;;;;;-3.43;49.34;95923.50;4925098;29;20043;-76
2022/01/25 12:10:35;;;;;;;29.40;16.02;;;;;;;-3.36;50.40;95924.66;4932944;29;20500;-78
2022/01/25 12:13:11;;;;;;;33.03;16.88;;;;;;;-3.23;49.41;95910.06;4926387;29;20047;-78
2022/01/25 12:15:37;;;;;;;30.33;16.45;;;;;;;-3.29;49.74;95910.50;4933844;29;20575;-78
2022/01/25 12:18:02;;;;;;;30.83;16.58;;;;;;;-3.32;50.56;95910.75;4924362;29;20044;-78
2022/01/25 12:20:28;;;;;;;38.20;18.55;;;;;;;-3.28;49.57;95901.94;4932842;29;20043;-78
2022/01/25 12:23:10;;;;;;;29.45;16.75;;;;;;;-3.21;49.51;95908.19;4935685;29;20051;-78
2022/01/25 12:25:54;;;;;;;27.95;15.52;;;;;;;-3.20;49.12;95889.47;4933836;29;20094;-78
2022/01/25 12:28:27;;;;;;;28.10;15.93;;;;;;;-3.20;49.29;95912.34;4933355;29;20412;-78
2022/01/25 12:30:53;;;;;;;31.13;18.50;;;;;;;-3.07;49.80;95900.28;4901103;29;20028;-78
2022/01/25 12:33:23;;;;;;;24.17;14.93;;;;;;;-2.92;48.58;95900.81;4925954;29;20424;-78
2022/01/25 12:36:08;;;;;;;27.83;16.15;;;;;;;-2.88;48.45;95888.63;4934835;29;20043;-78
2022/01/25 12:38:55;;;;;;;34.13;16.95;;;;;;;-2.99;49.08;95886.13;4927739;29;20044;-78
2022/01/25 12:41:25;;;;;;;33.20;16.10;;;;;;;-3.04;48.64;95884.78;4935394;29;20047;-78
2022/01/25 12:44:04;;;;;;;32.75;17.27;;;;;;;-2.96;49.23;95881.59;4949636;29;20468;-78
2022/01/25 12:46:32;;;;;;;35.47;17.02;;;;;;;-2.85;48.54;95878.22;4934527;29;20056;-78
2022/01/25 12:48:58;;;;;;;32.88;17.35;;;;;;;-2.69;48.52;95873.50;4950429;29;20040;-78
2022/01/25 12:51:25;;;;;;;38.92;21.50;;;;;;;-2.53;47.93;95866.22;4935787;29;20080;-78
2022/01/25 12:53:53;;;;;;;28.70;16.90;;;;;;;-2.48;48.32;95861.56;4918844;29;20485;-78
2022/01/25 12:56:34;;;;;;;30.77;15.50;;;;;;;-2.53;48.02;95850.94;4935350;29;20114;-79
2022/01/25 12:59:20;;;;;;;31.30;16.65;;;;;;;-2.51;48.29;95856.72;4938212;29;20036;-78
2022/01/25 13:01:46;;;;;;;29.90;14.63;;;;;;;-2.51;47.62;95851.63;4957332;29;20227;-78